Time;durP1;ratioP1;P1;durP2;ratioP2;P2;SDS_P1;SDS_P2;PMS_P1;PMS_P2;Temp;Humidity;BMP_temperature;BMP_pressure;BME280_temperature;BME280_humidity;BME280_pressure;Samples;Min_cycle;Max_cycle;Signal;HPM_P1;HPM_P2
2021/10/31 00:01:53;;;;;;;33.97;24.25;;;8.80;99.90;;;;;;5050966;28;20466;-65
2021/10/31 00:04:19;;;;;;;34.30;25.27;;;8.70;99.90;;;;;;5050528;28;20029;-63
2021/10/31 00:06:45;;;;;;;29.40;23.75;;;8.90;99.90;;;;;;5050756;28;20128;-64
2021/10/31 00:09:10;;;;;;;34.20;23.10;;;8.90;99.90;;;;;;5051135;28;20021;-65
2021/10/31 00:11:37;;;;;;;28.88;22.55;;;8.90;99.90;;;;;;5050823;28;20032;-64
2021/10/31 00:14:03;;;;;;;28.98;21.30;;;8.90;99.90;;;;;;5051325;28;20087;-64
2021/10/31 00:16:29;;;;;;;27.90;22.38;;;8.90;99.90;;;;;;5050310;28;20188;-64
2021/10/31 00:18:55;;;;;;;30.30;21.95;;;8.90;99.90;;;;;;5051188;28;20033;-64
2021/10/31 00:21:22;;;;;;;26.63;20.75;;;8.90;99.90;;;;;;5051016;28;20033;-63
2021/10/31 00:23:49;;;;;;;26.90;20.90;;;9.00;99.90;;;;;;5051229;28;20029;-63
2021/10/31 00:26:14;;;;;;;25.38;20.23;;;9.10;99.90;;;;;;5050435;28;20021;-64
2021/10/31 00:28:40;;;;;;;24.27;18.58;;;9.10;99.90;;;;;;5049439;28;20044;-64
2021/10/31 00:31:06;;;;;;;25.80;19.63;;;9.00;99.90;;;;;;5051154;28;20096;-65
2021/10/31 00:33:32;;;;;;;26.27;20.95;;;9.10;99.90;;;;;;5052000;28;20441;-64
2021/10/31 00:35:58;;;;;;;22.58;17.55;;;9.10;99.90;;;;;;5055979;28;20047;-63
2021/10/31 00:38:24;;;;;;;23.48;19.45;;;9.10;99.90;;;;;;5056014;28;20110;-64
2021/10/31 00:40:50;;;;;;;24.92;20.20;;;9.00;99.90;;;;;;5055852;28;20059;-64
2021/10/31 00:43:16;;;;;;;28.20;19.40;;;9.00;99.90;;;;;;5053627;28;20634;-64
2021/10/31 00:45:43;;;;;;;25.30;17.75;;;8.90;99.90;;;;;;5054747;28;20028;-65
2021/10/31 00:48:09;;;;;;;24.25;17.90;;;8.80;99.90;;;;;;5054489;28;20087;-65
2021/10/31 00:50:36;;;;;;;24.35;18.33;;;8.80;99.90;;;;;;5055236;28;20044;-64
2021/10/31 00:53:02;;;;;;;23.35;17.52;;;8.70;99.90;;;;;;5055257;28;20025;-64
2021/10/31 00:55:29;;;;;;;22.23;17.23;;;8.70;99.90;;;;;;5054385;28;20021;-64
2021/10/31 00:57:55;;;;;;;23.27;18.90;;;8.60;99.90;;;;;;5054661;28;20033;-64
2021/10/31 01:00:21;;;;;;;24.05;17.08;;;8.60;99.90;;;;;;5054723;28;20033;-64
2021/10/31 01:02:47;;;;;;;22.05;16.20;;;8.50;99.90;;;;;;5054562;28;20064;-64
2021/10/31 01:05:17;;;;;;;22.35;17.02;;;8.40;99.90;;;;;;5053429;28;20475;-62
2021/10/31 01:08:12;;;;;;;21.05;16.42;;;8.40;99.90;;;;;;5053379;28;20021;-64
2021/10/31 01:11:25;;;;;;;21.23;16.63;;;8.30;99.90;;;;;;5043141;28;20033;-63
2021/10/31 01:13:53;;;;;;;18.88;15.57;;;8.30;99.90;;;;;;5033468;28;20038;-64
2021/10/31 01:16:51;;;;;;;22.10;15.82;;;8.20;99.90;;;;;;5052598;28;20025;-63
2021/10/31 01:19:43;;;;;;;22.70;18.02;;;8.10;99.90;;;;;;5053259;28;20057;-65
2021/10/31 01:22:42;;;;;;;24.85;18.67;;;8.10;99.90;;;;;;5053579;28;20028;-64
2021/10/31 01:25:29;;;;;;;24.88;17.67;;;8.10;99.90;;;;;;5052577;28;20032;-64
2021/10/31 01:28:37;;;;;;;21.92;16.58;;;8.00;99.90;;;;;;5052945;28;20028;-64
2021/10/31 01:31:21;;;;;;;21.40;16.50;;;8.00;99.90;;;;;;5045122;28;20045;-64
2021/10/31 01:34:24;;;;;;;21.80;16.50;;;8.00;99.90;;;;;;5053416;28;20025;-65
2021/10/31 01:37:01;;;;;;;21.10;17.13;;;8.00;99.90;;;;;;5052495;28;20029;-65
2021/10/31 01:39:36;;;;;;;20.55;15.27;;;7.90;99.90;;;;;;5053182;28;20032;-67
2021/10/31 01:42:20;;;;;;;23.55;16.98;;;7.90;99.90;;;;;;5053973;28;20359;-64
2021/10/31 01:45:01;;;;;;;25.27;16.40;;;7.80;99.90;;;;;;5052239;28;20426;-64
2021/10/31 01:47:26;;;;;;;24.70;17.75;;;7.80;99.90;;;;;;5053131;28;20025;-63
2021/10/31 01:50:05;;;;;;;22.92;17.23;;;7.80;99.90;;;;;;5053110;28;20363;-64
2021/10/31 01:52:39;;;;;;;19.98;15.38;;;7.80;99.90;;;;;;5053091;28;20104;-64
2021/10/31 01:55:24;;;;;;;21.67;15.95;;;7.70;99.90;;;;;;5052399;28;20025;-65
2021/10/31 01:57:56;;;;;;;19.60;14.98;;;7.70;99.90;;;;;;5052559;28;20032;-63
2021/10/31 02:00:21;;;;;;;15.93;11.93;;;7.70;99.90;;;;;;5052966;28;20416;-64
2021/10/31 02:02:47;;;;;;;18.23;13.75;;;7.70;99.90;;;;;;5052727;28;20021;-65
2021/10/31 02:05:16;;;;;;;17.17;12.10;;;7.60;99.90;;;;;;5051800;28;20126;-64
2021/10/31 02:07:47;;;;;;;17.70;12.75;;;7.60;99.90;;;;;;5052521;28;20107;-63
2021/10/31 02:10:15;;;;;;;18.60;14.05;;;7.60;99.90;;;;;;5052525;28;20024;-64
2021/10/31 02:12:45;;;;;;;25.05;16.08;;;7.80;99.90;;;;;;5052302;28;20082;-65
2021/10/31 02:15:16;;;;;;;18.80;14.57;;;7.60;99.90;;;;;;5051773;28;20040;-63
2021/10/31 02:17:46;;;;;;;16.50;13.52;;;7.50;99.90;;;;;;5052472;28;20044;-63
2021/10/31 02:20:12;;;;;;;22.95;15.45;;;7.40;99.90;;;;;;5052356;28;20467;-63
2021/10/31 02:22:39;;;;;;;21.83;16.83;;;7.40;99.90;;;;;;5052185;28;20110;-62
2021/10/31 02:25:05;;;;;;;21.23;16.00;;;7.60;99.90;;;;;;5051507;28;20029;-64
2021/10/31 02:27:33;;;;;;;23.40;16.83;;;7.50;99.90;;;;;;5050469;28;20036;-63
2021/10/31 02:30:00;;;;;;;19.15;15.63;;;7.50;99.90;;;;;;5051076;28;20531;-64
2021/10/31 02:32:29;;;;;;;20.55;15.35;;;7.50;99.90;;;;;;5052230;28;20098;-64
2021/10/31 02:34:55;;;;;;;21.17;15.07;;;7.40;99.90;;;;;;5051543;28;20112;-64
2021/10/31 02:37:22;;;;;;;24.15;16.58;;;7.30;99.90;;;;;;5051971;28;20105;-64
2021/10/31 02:39:49;;;;;;;17.02;14.32;;;7.30;99.90;;;;;;5052094;28;20096;-64
2021/10/31 02:42:15;;;;;;;19.92;14.50;;;7.30;99.90;;;;;;5051904;28;20074;-64
2021/10/31 02:44:42;;;;;;;18.58;13.48;;;7.30;99.90;;;;;;5051596;28;20112;-64
2021/10/31 02:47:17;;;;;;;16.42;12.52;;;7.30;99.90;;;;;;5052228;28;20094;-63
2021/10/31 02:49:43;;;;;;;17.77;12.93;;;7.30;99.90;;;;;;5052556;28;20028;-64
2021/10/31 02:52:24;;;;;;;22.45;15.43;;;7.20;99.90;;;;;;5052039;28;20029;-63
2021/10/31 02:55:02;;;;;;;20.00;15.68;;;7.20;99.90;;;;;;5051653;28;20029;-65
2021/10/31 02:57:54;;;;;;;21.52;14.52;;;7.20;99.90;;;;;;5051524;28;20025;-64
2021/10/31 03:00:20;;;;;;;26.70;18.00;;;7.20;99.90;;;;;;5051791;28;20036;-64
2021/10/31 03:02:47;;;;;;;27.42;19.15;;;7.20;99.90;;;;;;5052113;28;20036;-63
2021/10/31 03:05:13;;;;;;;30.00;21.60;;;7.20;99.90;;;;;;5051301;28;20024;-65
2021/10/31 03:07:39;;;;;;;52.00;29.83;;;7.30;99.90;;;;;;5051644;28;20028;-66
2021/10/31 03:10:05;;;;;;;76.72;35.38;;;7.40;99.90;;;;;;5050412;28;20414;-66
2021/10/31 03:12:31;;;;;;;42.97;28.25;;;7.40;99.90;;;;;;5051301;28;20025;-65
2021/10/31 03:14:57;;;;;;;34.60;25.35;;;7.40;99.90;;;;;;5050983;28;20083;-65
2021/10/31 03:17:23;;;;;;;38.53;25.08;;;7.40;99.90;;;;;;5051624;28;20090;-65
2021/10/31 03:19:49;;;;;;;30.45;22.52;;;7.40;99.90;;;;;;5051579;28;20031;-64
2021/10/31 03:22:15;;;;;;;27.98;20.77;;;7.40;99.90;;;;;;5051839;28;20051;-66
2021/10/31 03:24:41;;;;;;;26.02;17.55;;;7.40;99.90;;;;;;5050949;28;20419;-65
2021/10/31 03:27:07;;;;;;;22.33;15.00;;;7.30;99.90;;;;;;5051236;28;20109;-65
2021/10/31 03:29:33;;;;;;;19.50;13.43;;;7.20;99.90;;;;;;5050927;28;20104;-65
2021/10/31 03:31:58;;;;;;;35.53;18.73;;;7.20;99.90;;;;;;5051236;28;20025;-64
2021/10/31 03:34:24;;;;;;;35.75;18.65;;;7.20;99.90;;;;;;5050518;28;20078;-65
2021/10/31 03:36:50;;;;;;;21.23;17.20;;;7.20;99.90;;;;;;5051003;28;20040;-64
2021/10/31 03:39:16;;;;;;;41.00;20.00;;;7.10;99.90;;;;;;5051199;28;20025;-64
2021/10/31 03:41:45;;;;;;;26.63;18.17;;;7.20;99.90;;;;;;5050963;28;20025;-65
2021/10/31 03:44:14;;;;;;;24.10;19.38;;;7.20;99.90;;;;;;5050834;28;20072;-65
2021/10/31 03:46:39;;;;;;;24.38;19.15;;;7.20;99.90;;;;;;5050473;28;20102;-64
2021/10/31 03:49:05;;;;;;;24.60;18.38;;;7.30;99.90;;;;;;5050864;28;20033;-64
2021/10/31 03:51:31;;;;;;;22.33;18.33;;;7.20;99.90;;;;;;5051005;28;20042;-64
2021/10/31 03:53:56;;;;;;;21.75;16.60;;;7.20;99.90;;;;;;5050672;28;20048;-64
2021/10/31 03:56:22;;;;;;;20.08;16.73;;;7.20;99.90;;;;;;5049936;28;20036;-65
2021/10/31 03:58:48;;;;;;;21.23;15.55;;;7.10;99.90;;;;;;5050479;28;20108;-64
2021/10/31 04:01:13;;;;;;;26.45;16.55;;;7.10;99.90;;;;;;5050905;28;20057;-64
2021/10/31 04:03:39;;;;;;;22.52;14.23;;;7.10;99.90;;;;;;5050832;28;20025;-64
2021/10/31 04:06:04;;;;;;;16.25;13.27;;;7.00;99.90;;;;;;5050015;28;20029;-64
2021/10/31 04:08:30;;;;;;;20.55;15.10;;;6.90;99.90;;;;;;5051299;28;20025;-64
2021/10/31 04:10:56;;;;;;;22.67;16.90;;;6.90;99.90;;;;;;5054657;28;20025;-64
2021/10/31 04:13:21;;;;;;;23.27;15.35;;;7.00;99.90;;;;;;5054107;28;20048;-64
2021/10/31 04:15:47;;;;;;;20.02;15.27;;;6.80;99.90;;;;;;5054021;28;20029;-64
2021/10/31 04:18:12;;;;;;;18.40;14.55;;;6.80;99.90;;;;;;5054243;28;20463;-64
2021/10/31 04:20:38;;;;;;;18.77;14.20;;;6.80;99.90;;;;;;5054386;28;20108;-64
2021/10/31 04:23:04;;;;;;;26.02;16.48;;;6.90;99.90;;;;;;5053807;28;20029;-64
2021/10/31 04:25:30;;;;;;;19.88;15.43;;;7.00;99.90;;;;;;5053633;28;20029;-65
2021/10/31 04:27:55;;;;;;;20.10;15.82;;;6.90;99.90;;;;;;5054325;28;20025;-64
2021/10/31 04:30:21;;;;;;;17.33;13.68;;;6.90;99.90;;;;;;5054623;28;20021;-64
2021/10/31 04:32:47;;;;;;;15.27;13.68;;;6.90;99.90;;;;;;5054694;28;20029;-65
2021/10/31 04:35:12;;;;;;;14.63;12.23;;;6.90;99.90;;;;;;5053804;28;20032;-64
2021/10/31 04:37:42;;;;;;;18.02;12.68;;;6.90;99.90;;;;;;5054554;28;20024;-65
2021/10/31 04:40:10;;;;;;;13.23;10.77;;;6.90;99.90;;;;;;5054041;28;20029;-65
2021/10/31 04:42:39;;;;;;;15.35;12.40;;;6.90;99.90;;;;;;5054574;28;20076;-64
2021/10/31 04:45:05;;;;;;;17.02;12.93;;;6.90;99.90;;;;;;5053954;28;20025;-64
2021/10/31 04:47:31;;;;;;;18.30;14.70;;;7.00;99.90;;;;;;5054266;28;20399;-65
2021/10/31 04:49:57;;;;;;;18.52;14.38;;;7.10;99.90;;;;;;5054377;28;20033;-64
2021/10/31 04:52:23;;;;;;;19.60;14.38;;;7.10;99.90;;;;;;5054153;28;20110;-65
2021/10/31 04:54:48;;;;;;;22.02;17.13;;;7.00;99.90;;;;;;5051975;28;20021;-64
2021/10/31 04:57:14;;;;;;;22.00;15.60;;;7.00;99.90;;;;;;5054073;28;20029;-63
2021/10/31 04:59:40;;;;;;;19.73;15.07;;;7.00;99.90;;;;;;5054172;28;20491;-63
2021/10/31 05:02:05;;;;;;;19.48;16.35;;;7.00;99.90;;;;;;5054233;28;20035;-64
2021/10/31 05:04:31;;;;;;;22.95;16.40;;;7.10;99.90;;;;;;5053373;28;20029;-64
2021/10/31 05:06:57;;;;;;;19.35;15.40;;;7.10;99.90;;;;;;5053847;28;20064;-64
2021/10/31 05:09:22;;;;;;;19.23;15.65;;;7.00;99.90;;;;;;5053450;28;20056;-64
2021/10/31 05:11:48;;;;;;;17.85;15.50;;;7.10;99.90;;;;;;5054101;28;20021;-64
2021/10/31 05:14:14;;;;;;;21.55;16.13;;;7.10;99.90;;;;;;5053829;28;20497;-63
2021/10/31 05:16:39;;;;;;;18.88;15.45;;;7.00;99.90;;;;;;5053154;28;20033;-63
2021/10/31 05:19:07;;;;;;;19.13;15.02;;;7.00;99.90;;;;;;5053716;28;20025;-65
2021/10/31 05:21:33;;;;;;;20.15;14.65;;;7.10;99.90;;;;;;5053871;28;20025;-65
2021/10/31 05:23:59;;;;;;;15.85;13.98;;;7.00;99.90;;;;;;5052388;28;20029;-65
2021/10/31 05:26:25;;;;;;;14.52;12.90;;;7.00;99.90;;;;;;5052513;28;20035;-65
2021/10/31 05:28:51;;;;;;;19.92;14.50;;;7.00;99.90;;;;;;5053846;28;20040;-65
2021/10/31 05:31:17;;;;;;;16.23;14.20;;;7.00;99.90;;;;;;5078496;22;20045;-66
2021/10/31 05:33:44;;;;;;;14.82;12.02;;;7.10;99.90;;;;;;5044854;28;20029;-65
2021/10/31 05:36:10;;;;;;;16.23;13.85;;;7.10;99.90;;;;;;5052761;28;20021;-66
2021/10/31 05:38:36;;;;;;;15.70;12.38;;;7.00;99.90;;;;;;5053037;28;20052;-66
2021/10/31 05:41:03;;;;;;;15.60;13.50;;;7.00;99.90;;;;;;5053258;28;20080;-65
2021/10/31 05:43:29;;;;;;;15.70;12.93;;;7.00;99.90;;;;;;5053294;28;20391;-65
2021/10/31 05:45:56;;;;;;;16.88;12.70;;;6.90;99.90;;;;;;5052027;28;20029;-65
2021/10/31 05:48:23;;;;;;;14.50;12.88;;;6.80;99.90;;;;;;5053104;28;20013;-63
2021/10/31 05:50:48;;;;;;;15.15;12.93;;;6.80;99.90;;;;;;5053087;28;20017;-65
2021/10/31 05:53:14;;;;;;;15.85;12.70;;;6.80;99.90;;;;;;5038549;28;20112;-65
2021/10/31 05:55:40;;;;;;;16.02;12.35;;;6.80;99.90;;;;;;5028000;28;20483;-70
2021/10/31 05:58:06;;;;;;;14.88;12.68;;;6.70;99.90;;;;;;5017086;28;20479;-72
2021/10/31 06:00:32;;;;;;;17.52;13.70;;;6.70;99.90;;;;;;5038223;28;20048;-72
2021/10/31 06:02:58;;;;;;;16.60;13.23;;;6.70;99.90;;;;;;5037571;28;20029;-70
2021/10/31 06:05:24;;;;;;;18.83;12.38;;;6.60;99.90;;;;;;5031348;28;20442;-71
2021/10/31 06:07:50;;;;;;;14.40;12.05;;;6.60;99.90;;;;;;5031104;28;20025;-68
2021/10/31 06:10:16;;;;;;;17.90;14.13;;;6.60;99.90;;;;;;5031988;28;20076;-70
2021/10/31 06:12:44;;;;;;;17.55;14.18;;;6.70;99.90;;;;;;5032217;28;20056;-70
2021/10/31 06:15:11;;;;;;;18.17;12.68;;;6.70;99.90;;;;;;5030781;28;20018;-68
2021/10/31 06:17:38;;;;;;;13.38;11.77;;;6.70;99.90;;;;;;4995110;28;20029;-69
2021/10/31 06:20:05;;;;;;;15.98;12.43;;;6.70;99.90;;;;;;5032116;28;20487;-70
2021/10/31 06:22:30;;;;;;;15.80;12.18;;;6.70;99.90;;;;;;5031872;28;20022;-70
2021/10/31 06:24:56;;;;;;;14.63;11.63;;;6.70;99.90;;;;;;5030339;28;20490;-71
2021/10/31 06:27:22;;;;;;;13.68;11.98;;;6.80;99.90;;;;;;5031839;28;20025;-70
2021/10/31 06:29:47;;;;;;;14.90;11.70;;;6.90;99.90;;;;;;5029852;28;20443;-70
2021/10/31 06:32:13;;;;;;;15.40;12.48;;;6.90;99.90;;;;;;5031335;28;20033;-70
2021/10/31 06:34:39;;;;;;;15.70;10.98;;;7.00;99.90;;;;;;5031398;28;20021;-70
2021/10/31 06:37:04;;;;;;;13.60;10.85;;;7.20;99.90;;;;;;5030757;28;20025;-70
2021/10/31 06:39:30;;;;;;;14.32;10.25;;;7.10;99.90;;;;;;5031870;28;20021;-69
2021/10/31 06:41:56;;;;;;;13.30;10.55;;;7.20;99.90;;;;;;5032085;28;20112;-70
2021/10/31 06:44:21;;;;;;;15.35;11.15;;;7.20;99.90;;;;;;5031434;28;20104;-70
2021/10/31 06:46:47;;;;;;;22.05;16.02;;;7.50;99.90;;;;;;5031511;28;20029;-70
2021/10/31 06:49:13;;;;;;;23.38;19.08;;;7.50;99.90;;;;;;5031904;28;20029;-72
2021/10/31 06:51:39;;;;;;;26.17;20.33;;;7.50;99.90;;;;;;5028179;28;20053;-73
2021/10/31 06:54:05;;;;;;;22.30;17.85;;;7.50;99.90;;;;;;5021598;28;20022;-72
2021/10/31 06:56:30;;;;;;;20.50;16.90;;;7.60;99.90;;;;;;5031168;28;20489;-71
2021/10/31 06:58:58;;;;;;;20.42;16.08;;;7.70;99.90;;;;;;5013937;28;20037;-72
2021/10/31 07:01:23;;;;;;;17.50;15.55;;;7.70;99.90;;;;;;5031348;28;20052;-72
2021/10/31 07:03:49;;;;;;;18.75;16.08;;;7.70;99.90;;;;;;5031678;28;20107;-73
2021/10/31 07:06:16;;;;;;;24.63;16.17;;;7.70;99.90;;;;;;5030775;28;20034;-72
2021/10/31 07:08:43;;;;;;;18.90;15.15;;;7.80;99.90;;;;;;5031613;28;20025;-72
2021/10/31 07:11:08;;;;;;;20.92;16.05;;;7.80;99.90;;;;;;5031413;28;20079;-70
2021/10/31 07:13:34;;;;;;;20.85;16.48;;;7.90;99.90;;;;;;5032546;28;20025;-77
2021/10/31 07:16:00;;;;;;;18.95;14.32;;;8.10;99.90;;;;;;5014138;28;20479;-77
2021/10/31 07:18:26;;;;;;;16.10;14.23;;;8.20;99.90;;;;;;5032145;28;20105;-77
2021/10/31 07:20:51;;;;;;;21.05;14.38;;;8.40;99.90;;;;;;5031101;28;20630;-77
2021/10/31 07:23:17;;;;;;;19.35;13.48;;;8.50;99.90;;;;;;5032047;28;20479;-70
2021/10/31 07:25:43;;;;;;;12.93;11.60;;;8.70;99.90;;;;;;5030722;28;20037;-70
2021/10/31 07:28:15;;;;;;;13.48;12.07;;;8.90;99.90;;;;;;5031303;28;20057;-70
2021/10/31 07:30:41;;;;;;;15.60;13.43;;;9.10;99.90;;;;;;5030979;28;20033;-70
2021/10/31 07:33:06;;;;;;;13.18;11.70;;;9.30;99.90;;;;;;5031128;28;20022;-74
2021/10/31 07:35:32;;;;;;;15.27;11.57;;;9.40;99.90;;;;;;5030539;28;20035;-71
2021/10/31 07:37:58;;;;;;;14.63;12.10;;;9.30;99.90;;;;;;5013686;28;20159;-71
2021/10/31 07:40:24;;;;;;;13.27;11.88;;;9.40;99.90;;;;;;5031388;28;20037;-71
2021/10/31 07:42:51;;;;;;;13.10;11.70;;;9.30;99.90;;;;;;5031536;28;20049;-71
2021/10/31 07:45:18;;;;;;;13.73;11.30;;;9.20;99.90;;;;;;5016825;28;20053;-70
2021/10/31 07:47:44;;;;;;;15.95;14.45;;;9.20;99.90;;;;;;5035894;28;20091;-72
2021/10/31 07:50:10;;;;;;;9.88;8.90;;;9.40;99.90;;;;;;5036026;28;20087;-71
2021/10/31 07:52:42;;;;;;;10.90;9.80;;;9.60;99.90;;;;;;5035189;28;20029;-71
2021/10/31 07:55:10;;;;;;;9.82;8.80;;;10.00;99.90;;;;;;5034576;28;20565;-72
2021/10/31 07:57:36;;;;;;;9.35;8.43;;;10.20;99.90;;;;;;5017379;28;20076;-72
2021/10/31 08:00:03;;;;;;;9.82;8.82;;;10.10;99.90;;;;;;5017192;28;20025;-71
2021/10/31 08:02:29;;;;;;;10.95;9.63;;;9.90;99.90;;;;;;5017255;28;20434;-71
2021/10/31 08:04:54;;;;;;;10.13;9.15;;;9.70;99.90;;;;;;5016519;28;20034;-71
2021/10/31 08:07:27;;;;;;;10.48;9.40;;;9.60;99.90;;;;;;5035003;28;20025;-72
2021/10/31 08:09:53;;;;;;;10.02;9.02;;;9.60;99.90;;;;;;5037374;28;20018;-71
2021/10/31 08:12:19;;;;;;;10.60;9.50;;;9.70;99.90;;;;;;5036675;28;20025;-71
2021/10/31 08:14:44;;;;;;;10.43;9.32;;;9.80;99.90;;;;;;5034079;28;20022;-66
2021/10/31 08:17:10;;;;;;;10.80;9.70;;;9.90;99.90;;;;;;5034383;28;20120;-66
2021/10/31 08:19:36;;;;;;;9.75;8.75;;;10.30;99.90;;;;;;5034389;28;20079;-67
2021/10/31 08:22:01;;;;;;;8.63;7.93;;;10.90;99.90;;;;;;5034560;28;20105;-67
2021/10/31 08:24:28;;;;;;;9.18;8.27;;;11.70;99.90;;;;;;5032398;28;20021;-67
2021/10/31 08:26:53;;;;;;;7.93;7.22;;;11.90;99.90;;;;;;5034433;28;20048;-63
2021/10/31 08:29:21;;;;;;;7.43;6.68;;;11.80;99.90;;;;;;5034434;28;20022;-62
2021/10/31 08:31:50;;;;;;;6.18;5.63;;;12.60;99.90;;;;;;5033481;28;20495;-66
2021/10/31 08:34:16;;;;;;;6.07;5.57;;;13.90;99.90;;;;;;5038203;28;20531;-65
2021/10/31 08:36:41;;;;;;;7.75;5.57;;;14.90;99.90;;;;;;5035969;28;20103;-66
2021/10/31 08:39:07;;;;;;;6.18;5.57;;;16.10;99.90;;;;;;5034642;28;20025;-66
2021/10/31 08:41:33;;;;;;;5.43;5.03;;;17.10;99.90;;;;;;5034316;28;20041;-66
2021/10/31 08:44:00;;;;;;;5.05;4.55;;;17.30;99.90;;;;;;5032793;28;20079;-66
2021/10/31 08:46:30;;;;;;;5.75;5.25;;;17.70;99.90;;;;;;5033599;28;20025;-65
2021/10/31 08:48:56;;;;;;;5.22;4.82;;;18.70;99.90;;;;;;5034268;28;20029;-67
2021/10/31 08:51:24;;;;;;;5.35;4.85;;;19.10;99.90;;;;;;5035344;28;20026;-70
2021/10/31 08:53:51;;;;;;;4.53;4.13;;;19.70;99.90;;;;;;5037759;28;20029;-67
2021/10/31 08:56:17;;;;;;;5.13;4.72;;;20.50;99.90;;;;;;5033218;28;20045;-67
2021/10/31 08:58:43;;;;;;;6.18;4.88;;;20.80;99.90;;;;;;5033695;28;20472;-71
2021/10/31 09:01:11;;;;;;;5.32;4.88;;;20.90;99.90;;;;;;5034111;28;20476;-70
2021/10/31 09:03:36;;;;;;;7.63;6.20;;;20.80;99.90;;;;;;5033994;28;20031;-72
2021/10/31 09:06:02;;;;;;;6.50;5.95;;;20.20;99.90;;;;;;5028415;28;20021;-72
2021/10/31 09:08:28;;;;;;;6.82;6.07;;;20.10;99.90;;;;;;5032148;28;20482;-74
2021/10/31 09:10:54;;;;;;;6.50;5.90;;;19.90;99.90;;;;;;5033720;28;20598;-73
2021/10/31 09:13:20;;;;;;;5.78;5.32;;;19.40;99.90;;;;;;5034332;28;20025;-73
2021/10/31 09:15:46;;;;;;;6.35;5.75;;;18.80;99.90;;;;;;5022378;28;20120;-74
2021/10/31 09:18:12;;;;;;;5.22;4.82;;;18.50;99.90;;;;;;5033843;28;20029;-74
2021/10/31 09:20:38;;;;;;;5.63;5.13;;;18.80;99.90;;;;;;5033514;28;20032;-73
2021/10/31 09:23:06;;;;;;;7.40;5.45;;;18.80;99.90;;;;;;5032753;28;20372;-67
2021/10/31 09:25:32;;;;;;;5.88;4.88;;;18.60;99.90;;;;;;5024383;28;20111;-66
2021/10/31 09:28:01;;;;;;;5.50;5.00;;;18.50;99.90;;;;;;5030404;28;20064;-67
2021/10/31 09:30:28;;;;;;;6.60;4.57;;;19.40;99.90;;;;;;5032871;28;20037;-67
2021/10/31 09:32:55;;;;;;;5.65;5.15;;;20.10;99.90;;;;;;5033137;28;20390;-65
2021/10/31 09:35:23;;;;;;;5.32;4.82;;;21.20;99.90;;;;;;5032820;28;20434;-68
2021/10/31 09:37:53;;;;;;;4.72;4.38;;;22.20;99.90;;;;;;5033229;28;20017;-68
2021/10/31 09:40:20;;;;;;;5.18;4.70;;;23.20;99.90;;;;;;5033187;28;20434;-67
2021/10/31 09:42:47;;;;;;;4.70;4.32;;;23.30;99.30;;;;;;5033456;28;20084;-67
2021/10/31 09:45:12;;;;;;;4.88;4.47;;;23.70;98.70;;;;;;5030950;28;20036;-60
2021/10/31 09:47:41;;;;;;;4.63;4.28;;;24.10;97.30;;;;;;5033008;28;20069;-59
2021/10/31 09:50:07;;;;;;;4.50;4.10;;;24.30;97.70;;;;;;5032952;28;20083;-61
2021/10/31 09:52:33;;;;;;;3.90;3.58;;;23.90;97.50;;;;;;5033196;28;20017;-59
2021/10/31 09:54:59;;;;;;;4.32;3.92;;;24.60;96.50;;;;;;5030582;28;20101;-60
2021/10/31 09:57:25;;;;;;;3.25;3.05;;;24.80;96.80;;;;;;5022439;28;20030;-65
2021/10/31 09:59:54;;;;;;;4.20;3.60;;;25.10;95.10;;;;;;5029690;28;20083;-67
2021/10/31 10:02:50;;;;;;;3.20;2.92;;;25.50;95.90;;;;;;5032824;28;20029;-67
2021/10/31 10:05:25;;;;;;;3.50;3.20;;;25.90;94.40;;;;;;5012094;28;20018;-67
2021/10/31 10:08:12;;;;;;;2.90;2.70;;;26.00;94.90;;;;;;5012032;28;20036;-67
2021/10/31 10:10:49;;;;;;;3.47;2.20;;;25.60;94.40;;;;;;5012745;28;20538;-66
2021/10/31 10:13:28;;;;;;;2.13;2.03;;;25.40;94.30;;;;;;5012670;28;20022;-67
2021/10/31 10:16:24;;;;;;;2.40;2.22;;;25.30;95.10;;;;;;5021672;28;20112;-67
2021/10/31 10:18:51;;;;;;;3.70;2.10;;;25.30;93.50;;;;;;5022696;28;20038;-66
2021/10/31 10:21:22;;;;;;;3.08;1.98;;;25.50;93.10;;;;;;5030974;28;20053;-67
2021/10/31 10:23:50;;;;;;;3.85;1.95;;;26.10;92.80;;;;;;5032555;28;20040;-66
2021/10/31 10:26:50;;;;;;;1.63;1.55;;;26.10;92.00;;;;;;5031714;28;20116;-67
2021/10/31 10:29:25;;;;;;;2.08;1.88;;;26.20;91.20;;;;;;5030052;28;20491;-67
2021/10/31 10:31:55;;;;;;;2.35;2.15;;;26.30;91.90;;;;;;5032131;28;20521;-67
2021/10/31 10:34:47;;;;;;;1.73;1.63;;;26.20;90.50;;;;;;5013895;28;20032;-67
2021/10/31 10:37:18;;;;;;;;;;;25.50;91.20;;;;;;5032183;28;20144;-67
2021/10/31 10:39:56;;;;;;;2.30;2.10;;;25.20;92.10;;;;;;5031334;28;19944;-66
2021/10/31 10:42:25;;;;;;;2.53;2.33;;;25.20;92.50;;;;;;5032454;28;20111;-67
2021/10/31 10:44:55;;;;;;;2.60;2.20;;;25.40;91.10;;;;;;5031214;28;20025;-67
2021/10/31 10:47:22;;;;;;;2.40;2.13;;;25.50;91.20;;;;;;5031943;28;20025;-67
2021/10/31 10:49:50;;;;;;;2.97;1.90;;;25.40;92.20;;;;;;5032058;28;20041;-67
2021/10/31 10:52:20;;;;;;;2.00;1.80;;;25.30;91.70;;;;;;5031665;28;20438;-66
2021/10/31 10:54:49;;;;;;;1.17;1.17;;;25.30;91.80;;;;;;5030932;28;20023;-68
2021/10/31 10:57:15;;;;;;;1.77;1.67;;;25.80;90.30;;;;;;5020111;28;20036;-67
2021/10/31 10:59:42;;;;;;;1.63;1.52;;;26.10;89.10;;;;;;5011528;28;20053;-67
2021/10/31 11:02:17;;;;;;;1.60;1.50;;;26.50;88.70;;;;;;5012089;28;20084;-68
2021/10/31 11:04:45;;;;;;;1.20;1.10;;;26.80;88.00;;;;;;5011347;28;20080;-68
2021/10/31 11:07:13;;;;;;;1.20;1.10;;;26.80;87.10;;;;;;5012090;28;20026;-68
2021/10/31 11:09:43;;;;;;;1.33;1.23;;;26.90;86.70;;;;;;5027797;28;20025;-67
2021/10/31 11:12:34;;;;;;;1.27;1.02;;;27.00;85.20;;;;;;5030712;28;20021;-68
2021/10/31 11:15:12;;;;;;;2.85;0.90;;;27.60;81.70;;;;;;5031049;28;20026;-67
2021/10/31 11:17:40;;;;;;;1.40;0.90;;;28.00;84.30;;;;;;5031694;28;20108;-68
2021/10/31 11:20:08;;;;;;;1.40;1.30;;;27.80;79.80;;;;;;5031341;28;20035;-68
2021/10/31 11:22:34;;;;;;;1.17;1.15;;;27.50;78.80;;;;;;5031468;28;20079;-66
2021/10/31 11:25:01;;;;;;;3.38;1.52;;;28.20;80.40;;;;;;5029709;28;20049;-66
2021/10/31 11:27:29;;;;;;;1.40;1.20;;;28.20;78.00;;;;;;5031367;28;20026;-68
2021/10/31 11:29:56;;;;;;;1.08;0.88;;;28.10;77.50;;;;;;5031142;28;20029;-67
2021/10/31 11:32:23;;;;;;;0.80;0.80;;;28.40;75.90;;;;;;5059811;22;20432;-70
2021/10/31 11:34:52;;;;;;;1.38;1.30;;;28.60;72.50;;;;;;5038717;28;20463;-70
2021/10/31 11:37:22;;;;;;;2.83;0.80;;;28.90;76.20;;;;;;5031567;28;20037;-69
2021/10/31 11:39:52;;;;;;;1.35;0.80;;;28.90;68.30;;;;;;5031893;28;20050;-70
2021/10/31 11:42:19;;;;;;;0.80;0.80;;;29.50;72.30;;;;;;5031467;28;20032;-70
2021/10/31 11:45:16;;;;;;;0.88;0.50;;;30.30;66.80;;;;;;5030830;28;20053;-69
2021/10/31 11:47:47;;;;;;;1.05;0.70;;;29.90;66.60;;;;;;5069175;28;20049;-70
2021/10/31 11:50:20;;;;;;;0.88;0.63;;;28.10;65.40;;;;;;5071003;28;20060;-70
2021/10/31 11:52:46;;;;;;;1.15;0.40;;;28.60;64.90;;;;;;5058227;28;20033;-70
2021/10/31 11:55:28;;;;;;;1.63;0.80;;;29.70;62.80;;;;;;5050717;28;20027;-69
2021/10/31 11:58:06;;;;;;;0.52;0.52;;;30.50;64.90;;;;;;5050822;28;20033;-71
2021/10/31 12:00:33;;;;;;;0.73;0.60;;;30.70;62.40;;;;;;5050845;28;20029;-74
2021/10/31 12:03:07;;;;;;;0.68;0.68;;;30.20;60.00;;;;;;5050796;28;20017;-73
2021/10/31 12:05:39;;;;;;;0.70;0.70;;;29.10;61.50;;;;;;5016474;28;20045;-73
2021/10/31 12:08:09;;;;;;;0.80;0.80;;;29.40;61.70;;;;;;5033464;28;20597;-73
2021/10/31 12:10:47;;;;;;;0.70;0.70;;;29.40;63.70;;;;;;5050681;28;20033;-73
2021/10/31 12:13:18;;;;;;;0.63;0.63;;;29.40;61.10;;;;;;5040627;28;20049;-72
2021/10/31 12:16:13;;;;;;;0.70;0.70;;;30.00;61.50;;;;;;5041169;28;20025;-73
2021/10/31 12:18:46;;;;;;;0.60;0.57;;;30.20;60.50;;;;;;5045775;28;20140;-73
2021/10/31 12:21:38;;;;;;;0.90;0.90;;;29.80;59.60;;;;;;5039437;28;20026;-72
2021/10/31 12:24:17;;;;;;;0.90;0.90;;;28.70;60.30;;;;;;5035580;28;20053;-72
2021/10/31 12:26:47;;;;;;;0.70;0.70;;;29.80;59.00;;;;;;5041299;28;20033;-67
2021/10/31 12:29:25;;;;;;;0.70;0.70;;;29.90;60.10;;;;;;5044825;28;20018;-67
2021/10/31 12:31:58;;;;;;;0.80;0.70;;;31.10;58.90;;;;;;5045157;28;20489;-68
2021/10/31 12:34:35;;;;;;;2.05;0.70;;;31.00;57.00;;;;;;5049731;28;20583;-67
2021/10/31 12:37:23;;;;;;;0.82;0.82;;;31.80;57.10;;;;;;5051023;28;20103;-67
2021/10/31 12:39:54;;;;;;;0.70;0.70;;;32.20;57.50;;;;;;5043723;28;20025;-68
2021/10/31 12:42:21;;;;;;;0.88;0.88;;;32.70;55.60;;;;;;5050731;28;20024;-67
2021/10/31 12:44:49;;;;;;;2.13;0.90;;;31.90;54.70;;;;;;5053192;28;20085;-69
2021/10/31 12:47:23;;;;;;;0.90;0.88;;;30.60;57.60;;;;;;5059894;28;20033;-67
2021/10/31 12:49:49;;;;;;;0.95;0.95;;;29.60;56.70;;;;;;5054546;28;20356;-69
2021/10/31 12:52:27;;;;;;;0.80;0.80;;;30.60;57.50;;;;;;5045779;28;20191;-69